sensor_id;sensor_type;location;lat;lon;timestamp;pressure;altitude;pressure_sealevel;temperature;humidity
17936;BME280;9093;52.062;4.508;2023-04-15T09:33:54;101827.03;;;9.98;68.44
17936;BME280;9093;52.062;4.508;2023-04-15T09:39:25;101827.72;;;10.29;69.28
17936;BME280;9093;52.062;4.508;2023-04-15T09:42:06;101833.31;;;10.45;68.99
17936;BME280;9093;52.062;4.508;2023-04-15T09:44:47;101840.72;;;10.62;68.88
17936;BME280;9093;52.062;4.508;2023-04-15T09:47:30;101834.78;;;10.77;68.55
17936;BME280;9093;52.062;4.508;2023-04-15T09:50:11;101842.34;;;10.87;68.37
17936;BME280;9093;52.062;4.508;2023-04-15T09:52:51;101840.16;;;10.99;68.09
17936;BME280;9093;52.062;4.508;2023-04-15T09:55:32;101837.09;;;11.08;68.15
17936;BME280;9093;52.062;4.508;2023-04-15T10:01:04;101846.31;;;11.22;67.75
17936;BME280;9093;52.062;4.508;2023-04-15T10:03:48;101849.56;;;11.31;67.64
17936;BME280;9093;52.062;4.508;2023-04-15T10:06:29;101848.38;;;11.38;67.61
17936;BME280;9093;52.062;4.508;2023-04-15T10:09:10;101850.72;;;11.45;67.34
17936;BME280;9093;52.062;4.508;2023-04-15T10:11:51;101858.47;;;11.51;67.39
17936;BME280;9093;52.062;4.508;2023-04-15T10:14:33;101856.56;;;11.55;67.20
17936;BME280;9093;52.062;4.508;2023-04-15T10:17:21;101859.91;;;11.60;67.01
17936;BME280;9093;52.062;4.508;2023-04-15T10:20:03;101865.06;;;11.64;66.69
17936;BME280;9093;52.062;4.508;2023-04-15T10:22:52;101871.22;;;11.66;66.69
17936;BME280;9093;52.062;4.508;2023-04-15T10:25:33;101861.13;;;11.73;66.68
17936;BME280;9093;52.062;4.508;2023-04-15T10:28:18;101862.78;;;11.77;66.31
17936;BME280;9093;52.062;4.508;2023-04-15T10:30:59;101871.50;;;11.82;66.17
17936;BME280;9093;52.062;4.508;2023-04-15T10:33:41;101871.34;;;11.85;66.04
17936;BME280;9093;52.062;4.508;2023-04-15T10:36:22;101879.25;;;11.88;65.71
17936;BME280;9093;52.062;4.508;2023-04-15T10:42:15;101873.56;;;11.96;65.43
17936;BME280;9093;52.062;4.508;2023-04-15T10:44:55;101886.75;;;12.00;65.28
17936;BME280;9093;52.062;4.508;2023-04-15T10:47:39;101880.34;;;12.04;65.12
17936;BME280;9093;52.062;4.508;2023-04-15T10:50:19;101881.00;;;12.09;64.99
17936;BME280;9093;52.062;4.508;2023-04-15T10:53:03;101886.94;;;12.16;64.95
17936;BME280;9093;52.062;4.508;2023-04-15T10:55:44;101882.19;;;12.23;64.65
17936;BME280;9093;52.062;4.508;2023-04-15T10:58:25;101882.69;;;12.32;64.44
17936;BME280;9093;52.062;4.508;2023-04-15T11:01:05;101893.84;;;12.42;64.43
17936;BME280;9093;52.062;4.508;2023-04-15T11:03:47;101891.69;;;12.50;64.04
17936;BME280;9093;52.062;4.508;2023-04-15T11:06:43;101902.13;;;12.56;64.03
17936;BME280;9093;52.062;4.508;2023-04-15T11:09:31;101894.81;;;12.60;63.94
17936;BME280;9093;52.062;4.508;2023-04-15T11:12:12;101905.19;;;12.67;63.65
17936;BME280;9093;52.062;4.508;2023-04-15T11:14:52;101900.69;;;12.68;63.58
17936;BME280;9093;52.062;4.508;2023-04-15T11:17:32;101905.06;;;12.70;63.85
17936;BME280;9093;52.062;4.508;2023-04-15T11:20:16;101915.50;;;12.76;63.46
17936;BME280;9093;52.062;4.508;2023-04-15T11:22:57;101905.44;;;12.81;63.26
17936;BME280;9093;52.062;4.508;2023-04-15T11:25:37;101927.53;;;12.86;63.22
17936;BME280;9093;52.062;4.508;2023-04-15T11:28:18;101928.97;;;12.94;62.75
17936;BME280;9093;52.062;4.508;2023-04-15T11:31:05;101934.06;;;13.00;62.51
17936;BME280;9093;52.062;4.508;2023-04-15T11:33:59;101931.16;;;13.04;62.23
17936;BME280;9093;52.062;4.508;2023-04-15T11:36:42;101931.97;;;13.06;62.09
17936;BME280;9093;52.062;4.508;2023-04-15T11:39:24;101939.69;;;13.14;62.22
17936;BME280;9093;52.062;4.508;2023-04-15T11:42:16;101931.19;;;13.23;61.77
17936;BME280;9093;52.062;4.508;2023-04-15T11:45:14;101942.28;;;13.34;61.32
17936;BME280;9093;52.062;4.508;2023-04-15T11:48:04;101940.91;;;13.44;61.53
17936;BME280;9093;52.062;4.508;2023-04-15T11:50:52;101948.50;;;13.53;61.41
17936;BME280;9093;52.062;4.508;2023-04-15T11:53:39;101952.78;;;13.57;61.34
17936;BME280;9093;52.062;4.508;2023-04-15T11:56:21;101948.69;;;13.67;61.07
17936;BME280;9093;52.062;4.508;2023-04-15T11:59:02;101951.72;;;13.79;60.80
17936;BME280;9093;52.062;4.508;2023-04-15T12:01:43;101951.13;;;13.91;60.30
17936;BME280;9093;52.062;4.508;2023-04-15T12:04:25;101953.63;;;13.94;60.29
17936;BME280;9093;52.062;4.508;2023-04-15T12:07:05;101961.56;;;13.97;60.26
17936;BME280;9093;52.062;4.508;2023-04-15T12:09:54;101964.72;;;14.05;59.98
17936;BME280;9093;52.062;4.508;2023-04-15T12:12:34;101964.09;;;14.17;59.73
17936;BME280;9093;52.062;4.508;2023-04-15T12:15:14;101964.50;;;14.27;59.66
17936;BME280;9093;52.062;4.508;2023-04-15T12:17:55;101976.47;;;14.38;59.46
17936;BME280;9093;52.062;4.508;2023-04-15T12:20:43;101977.56;;;14.52;59.29
17936;BME280;9093;52.062;4.508;2023-04-15T12:23:26;101966.63;;;14.55;59.16
17936;BME280;9093;52.062;4.508;2023-04-15T12:26:06;101976.78;;;14.67;58.83
17936;BME280;9093;52.062;4.508;2023-04-15T12:28:58;101983.09;;;14.66;58.79
17936;BME280;9093;52.062;4.508;2023-04-15T12:34:51;101999.06;;;15.02;58.16
17936;BME280;9093;52.062;4.508;2023-04-15T12:37:34;102004.53;;;15.00;58.00
17936;BME280;9093;52.062;4.508;2023-04-15T12:40:15;102008.03;;;15.18;57.81
17936;BME280;9093;52.062;4.508;2023-04-15T12:42:55;102006.22;;;15.18;57.82
17936;BME280;9093;52.062;4.508;2023-04-15T12:45:39;102014.25;;;15.03;58.25
17936;BME280;9093;52.062;4.508;2023-04-15T12:48:19;102015.88;;;14.89;58.55
17936;BME280;9093;52.062;4.508;2023-04-15T12:50:59;102021.50;;;14.85;58.53
17936;BME280;9093;52.062;4.508;2023-04-15T12:53:42;102029.09;;;14.77;58.81
17936;BME280;9093;52.062;4.508;2023-04-15T12:56:25;102030.22;;;14.73;58.88
17936;BME280;9093;52.062;4.508;2023-04-15T12:59:06;102030.53;;;14.67;58.61
17936;BME280;9093;52.062;4.508;2023-04-15T13:01:47;102043.63;;;14.56;58.65
17936;BME280;9093;52.062;4.508;2023-04-15T13:04:27;102042.53;;;14.42;58.74
17936;BME280;9093;52.062;4.508;2023-04-15T13:07:09;102050.94;;;14.54;58.29
17936;BME280;9093;52.062;4.508;2023-04-15T13:09:50;102054.72;;;14.67;57.94
17936;BME280;9093;52.062;4.508;2023-04-15T13:12:30;102044.25;;;14.61;57.80
17936;BME280;9093;52.062;4.508;2023-04-15T13:15:12;102053.25;;;14.42;58.04
17936;BME280;9093;52.062;4.508;2023-04-15T13:17:52;102060.16;;;14.48;58.09
17936;BME280;9093;52.062;4.508;2023-04-15T13:20:33;102065.31;;;14.70;57.48
17936;BME280;9093;52.062;4.508;2023-04-15T13:23:13;102064.75;;;14.80;57.13
17936;BME280;9093;52.062;4.508;2023-04-15T13:25:54;102077.94;;;15.02;57.05
17936;BME280;9093;52.062;4.508;2023-04-15T13:28:34;102068.97;;;15.19;56.73
17936;BME280;9093;52.062;4.508;2023-04-15T13:31:15;102080.88;;;15.30;56.53
17936;BME280;9093;52.062;4.508;2023-04-15T13:33:56;102069.91;;;15.35;56.28
17936;BME280;9093;52.062;4.508;2023-04-15T13:36:39;102080.94;;;15.46;56.06
17936;BME280;9093;52.062;4.508;2023-04-15T13:39:20;102091.31;;;15.54;55.79
17936;BME280;9093;52.062;4.508;2023-04-15T13:42:02;102085.41;;;15.63;55.50
17936;BME280;9093;52.062;4.508;2023-04-15T13:44:42;102086.81;;;15.70;55.52
17936;BME280;9093;52.062;4.508;2023-04-15T13:47:23;102075.72;;;15.76;55.47
17936;BME280;9093;52.062;4.508;2023-04-15T13:50:04;102084.41;;;15.81;55.09
17936;BME280;9093;52.062;4.508;2023-04-15T13:52:50;102084.06;;;15.87;54.99
17936;BME280;9093;52.062;4.508;2023-04-15T13:55:31;102087.19;;;15.95;54.84
17936;BME280;9093;52.062;4.508;2023-04-15T13:58:13;102095.19;;;15.97;54.55
17936;BME280;9093;52.062;4.508;2023-04-15T14:00:54;102102.06;;;16.02;54.52
17936;BME280;9093;52.062;4.508;2023-04-15T14:03:35;102098.50;;;16.02;54.36
17936;BME280;9093;52.062;4.508;2023-04-15T14:06:15;102095.38;;;16.09;54.22
17936;BME280;9093;52.062;4.508;2023-04-15T14:08:56;102107.63;;;16.15;54.09
17936;BME280;9093;52.062;4.508;2023-04-15T14:11:39;102113.97;;;16.14;54.15
17936;BME280;9093;52.062;4.508;2023-04-15T14:14:28;102113.97;;;16.14;53.99
17936;BME280;9093;52.062;4.508;2023-04-15T14:17:09;102118.47;;;16.14;54.05
17936;BME280;9093;52.062;4.508;2023-04-15T14:19:49;102119.25;;;16.16;54.04
17936;BME280;9093;52.062;4.508;2023-04-15T14:22:29;102123.88;;;16.14;54.18
17936;BME280;9093;52.062;4.508;2023-04-15T14:25:10;102125.59;;;16.15;53.91
17936;BME280;9093;52.062;4.508;2023-04-15T14:27:50;102128.50;;;16.12;53.89
17936;BME280;9093;52.062;4.508;2023-04-15T14:30:30;102134.84;;;16.11;53.85
17936;BME280;9093;52.062;4.508;2023-04-15T14:33:11;102138.28;;;16.13;53.96
17936;BME280;9093;52.062;4.508;2023-04-15T14:35:51;102147.00;;;16.18;53.83
17936;BME280;9093;52.062;4.508;2023-04-15T14:38:35;102138.81;;;16.19;54.06
17936;BME280;9093;52.062;4.508;2023-04-15T14:41:19;102145.78;;;16.23;54.11
17936;BME280;9093;52.062;4.508;2023-04-15T14:43:59;102150.97;;;16.26;54.07
17936;BME280;9093;52.062;4.508;2023-04-15T14:46:40;102157.59;;;16.21;54.01
17936;BME280;9093;52.062;4.508;2023-04-15T14:49:20;102161.44;;;16.17;54.04
17936;BME280;9093;52.062;4.508;2023-04-15T14:52:01;102164.88;;;16.19;54.24
17936;BME280;9093;52.062;4.508;2023-04-15T14:54:41;102181.16;;;16.17;54.31
17936;BME280;9093;52.062;4.508;2023-04-15T14:57:24;102191.94;;;16.17;53.86
17936;BME280;9093;52.062;4.508;2023-04-15T15:00:05;102194.44;;;16.20;54.03
17936;BME280;9093;52.062;4.508;2023-04-15T15:02:48;102195.59;;;16.16;54.31
17936;BME280;9093;52.062;4.508;2023-04-15T15:05:29;102188.53;;;16.14;53.90
17936;BME280;9093;52.062;4.508;2023-04-15T15:08:09;102209.06;;;16.16;54.22
17936;BME280;9093;52.062;4.508;2023-04-15T15:10:50;102195.84;;;16.12;54.10
17936;BME280;9093;52.062;4.508;2023-04-15T15:13:33;102200.78;;;16.03;54.28
17936;BME280;9093;52.062;4.508;2023-04-15T15:16:14;102198.88;;;16.05;54.31
17936;BME280;9093;52.062;4.508;2023-04-15T15:18:54;102205.03;;;16.07;54.42
17936;BME280;9093;52.062;4.508;2023-04-15T15:21:34;102204.00;;;16.10;54.32
17936;BME280;9093;52.062;4.508;2023-04-15T15:24:15;102218.44;;;16.09;54.20
17936;BME280;9093;52.062;4.508;2023-04-15T15:26:55;102216.63;;;16.09;54.35
17936;BME280;9093;52.062;4.508;2023-04-15T15:29:37;102213.91;;;16.09;53.89
17936;BME280;9093;52.062;4.508;2023-04-15T15:32:17;102231.09;;;16.07;53.96
17936;BME280;9093;52.062;4.508;2023-04-15T15:34:57;102231.38;;;16.02;53.62
17936;BME280;9093;52.062;4.508;2023-04-15T15:37:38;102235.81;;;16.03;53.80
17936;BME280;9093;52.062;4.508;2023-04-15T15:40:20;102226.25;;;15.98;53.86
17936;BME280;9093;52.062;4.508;2023-04-15T15:43:00;102228.13;;;15.96;53.96
17936;BME280;9093;52.062;4.508;2023-04-15T15:45:40;102237.88;;;15.98;53.65
17936;BME280;9093;52.062;4.508;2023-04-15T15:48:24;102249.69;;;15.96;53.59
17936;BME280;9093;52.062;4.508;2023-04-15T15:51:04;102246.38;;;15.91;53.52
17936;BME280;9093;52.062;4.508;2023-04-15T15:53:45;102255.59;;;15.87;53.51
17936;BME280;9093;52.062;4.508;2023-04-15T15:56:25;102250.28;;;15.85;53.43
17936;BME280;9093;52.062;4.508;2023-04-15T15:59:06;102271.81;;;15.85;53.37
17936;BME280;9093;52.062;4.508;2023-04-15T16:01:46;102285.63;;;15.79;53.41
17936;BME280;9093;52.062;4.508;2023-04-15T16:04:27;102286.72;;;15.75;53.35
17936;BME280;9093;52.062;4.508;2023-04-15T16:07:08;102285.94;;;15.73;53.48
17936;BME280;9093;52.062;4.508;2023-04-15T16:09:49;102286.25;;;15.67;53.47
17936;BME280;9093;52.062;4.508;2023-04-15T16:12:30;102285.47;;;15.65;53.50
17936;BME280;9093;52.062;4.508;2023-04-15T16:15:11;102296.38;;;15.62;53.36
17936;BME280;9093;52.062;4.508;2023-04-15T16:17:51;102288.47;;;15.59;53.50
17936;BME280;9093;52.062;4.508;2023-04-15T16:20:32;102292.13;;;15.58;53.21
17936;BME280;9093;52.062;4.508;2023-04-15T16:23:14;102302.06;;;15.56;53.38
17936;BME280;9093;52.062;4.508;2023-04-15T16:25:55;102298.28;;;15.43;53.67
17936;BME280;9093;52.062;4.508;2023-04-15T16:28:36;102303.84;;;15.38;53.58
17936;BME280;9093;52.062;4.508;2023-04-15T16:31:16;102319.94;;;15.40;53.52
17936;BME280;9093;52.062;4.508;2023-04-15T16:33:59;102320.75;;;15.42;53.45
17936;BME280;9093;52.062;4.508;2023-04-15T16:36:40;102320.69;;;15.24;53.76
17936;BME280;9093;52.062;4.508;2023-04-15T16:39:20;102324.00;;;15.12;53.86
17936;BME280;9093;52.062;4.508;2023-04-15T16:42:03;102326.69;;;15.12;53.56
17936;BME280;9093;52.062;4.508;2023-04-15T16:44:43;102327.00;;;15.06;53.89
17936;BME280;9093;52.062;4.508;2023-04-15T16:47:23;102338.22;;;14.97;53.69
17936;BME280;9093;52.062;4.508;2023-04-15T16:50:06;102336.75;;;14.90;53.84
17936;BME280;9093;52.062;4.508;2023-04-15T16:52:47;102342.84;;;14.75;54.10
17936;BME280;9093;52.062;4.508;2023-04-15T16:55:27;102343.44;;;14.63;54.58
17936;BME280;9093;52.062;4.508;2023-04-15T16:58:08;102350.56;;;14.45;55.06
17936;BME280;9093;52.062;4.508;2023-04-15T17:00:49;102349.19;;;14.74;54.40
17936;BME280;9093;52.062;4.508;2023-04-15T17:03:30;102363.88;;;14.67;54.50
17936;BME280;9093;52.062;4.508;2023-04-15T17:06:10;102370.69;;;14.35;54.83
17936;BME280;9093;52.062;4.508;2023-04-15T17:08:51;102368.34;;;14.27;55.03
17936;BME280;9093;52.062;4.508;2023-04-15T17:11:31;102369.84;;;14.14;54.96
17936;BME280;9093;52.062;4.508;2023-04-15T17:14:12;102371.59;;;13.95;55.39
17936;BME280;9093;52.062;4.508;2023-04-15T17:16:52;102373.25;;;13.77;55.55
17936;BME280;9093;52.062;4.508;2023-04-15T17:19:32;102383.50;;;13.67;55.50
17936;BME280;9093;52.062;4.508;2023-04-15T17:22:13;102376.63;;;13.60;55.61
17936;BME280;9093;52.062;4.508;2023-04-15T17:24:53;102378.78;;;13.52;55.94
17936;BME280;9093;52.062;4.508;2023-04-15T17:27:34;102395.25;;;13.43;56.01
17936;BME280;9093;52.062;4.508;2023-04-15T17:30:14;102382.28;;;13.33;56.10
17936;BME280;9093;52.062;4.508;2023-04-15T17:32:55;102399.75;;;13.21;56.14
17936;BME280;9093;52.062;4.508;2023-04-15T17:35:35;102393.91;;;13.10;56.34
17936;BME280;9093;52.062;4.508;2023-04-15T17:38:18;102387.22;;;12.98;56.43
17936;BME280;9093;52.062;4.508;2023-04-15T17:40:58;102393.94;;;12.86;56.56
17936;BME280;9093;52.062;4.508;2023-04-15T17:43:39;102397.78;;;12.79;56.75
17936;BME280;9093;52.062;4.508;2023-04-15T17:46:19;102405.13;;;12.74;56.88
17936;BME280;9093;52.062;4.508;2023-04-15T17:49:00;102409.91;;;12.66;56.98
17936;BME280;9093;52.062;4.508;2023-04-15T17:51:40;102408.38;;;12.59;57.06
17936;BME280;9093;52.062;4.508;2023-04-15T17:54:21;102411.06;;;12.59;57.04
17936;BME280;9093;52.062;4.508;2023-04-15T17:57:01;102427.47;;;12.50;57.17
17936;BME280;9093;52.062;4.508;2023-04-15T17:59:42;102425.13;;;12.41;57.28
17936;BME280;9093;52.062;4.508;2023-04-15T18:02:24;102431.75;;;12.31;57.59
17936;BME280;9093;52.062;4.508;2023-04-15T18:05:05;102427.50;;;12.25;57.52
17936;BME280;9093;52.062;4.508;2023-04-15T18:07:45;102430.44;;;12.18;57.59
17936;BME280;9093;52.062;4.508;2023-04-15T18:10:25;102432.41;;;12.13;57.64
17936;BME280;9093;52.062;4.508;2023-04-15T18:13:06;102427.16;;;12.09;57.80
17936;BME280;9093;52.062;4.508;2023-04-15T18:15:49;102430.75;;;12.08;57.53
17936;BME280;9093;52.062;4.508;2023-04-15T18:18:30;102446.81;;;12.08;57.85
17936;BME280;9093;52.062;4.508;2023-04-15T18:21:10;102448.69;;;12.06;57.85
17936;BME280;9093;52.062;4.508;2023-04-15T18:23:51;102448.78;;;12.03;58.10
17936;BME280;9093;52.062;4.508;2023-04-15T18:26:31;102455.94;;;12.03;58.17
17936;BME280;9093;52.062;4.508;2023-04-15T18:29:12;102471.28;;;11.98;58.49
17936;BME280;9093;52.062;4.508;2023-04-15T18:31:52;102457.19;;;11.93;58.52
17936;BME280;9093;52.062;4.508;2023-04-15T18:34:32;102462.53;;;11.93;58.46
17936;BME280;9093;52.062;4.508;2023-04-15T18:37:13;102469.94;;;11.85;58.55
17936;BME280;9093;52.062;4.508;2023-04-15T18:39:54;102465.59;;;11.82;58.43
17936;BME280;9093;52.062;4.508;2023-04-15T18:42:34;102471.78;;;11.83;58.68
17936;BME280;9093;52.062;4.508;2023-04-15T18:45:15;102465.69;;;11.79;58.71
17936;BME280;9093;52.062;4.508;2023-04-15T18:47:55;102483.69;;;11.74;58.84
17936;BME280;9093;52.062;4.508;2023-04-15T18:50:35;102481.91;;;11.73;58.99
17936;BME280;9093;52.062;4.508;2023-04-15T18:53:19;102491.72;;;11.74;58.92
17936;BME280;9093;52.062;4.508;2023-04-15T18:56:00;102483.81;;;11.69;59.22
17936;BME280;9093;52.062;4.508;2023-04-15T18:58:42;102485.84;;;11.61;59.26
17936;BME280;9093;52.062;4.508;2023-04-15T19:01:22;102484.13;;;11.59;59.22
17936;BME280;9093;52.062;4.508;2023-04-15T19:04:03;102481.69;;;11.51;59.23
17936;BME280;9093;52.062;4.508;2023-04-15T19:06:43;102491.72;;;11.45;59.49
17936;BME280;9093;52.062;4.508;2023-04-15T19:09:24;102498.13;;;11.39;59.47
17936;BME280;9093;52.062;4.508;2023-04-15T19:12:04;102500.88;;;11.38;59.42
17936;BME280;9093;52.062;4.508;2023-04-15T19:14:45;102507.16;;;11.37;59.60
17936;BME280;9093;52.062;4.508;2023-04-15T19:17:28;102510.00;;;11.31;59.43
17936;BME280;9093;52.062;4.508;2023-04-15T19:20:08;102511.75;;;11.32;59.35
17936;BME280;9093;52.062;4.508;2023-04-15T19:22:49;102519.94;;;11.25;59.54
17936;BME280;9093;52.062;4.508;2023-04-15T19:25:32;102516.50;;;11.22;59.46
17936;BME280;9093;52.062;4.508;2023-04-15T19:28:12;102508.63;;;11.17;59.61
17936;BME280;9093;52.062;4.508;2023-04-15T19:30:53;102509.50;;;11.18;59.73
17936;BME280;9093;52.062;4.508;2023-04-15T19:33:33;102525.56;;;11.16;59.64
17936;BME280;9093;52.062;4.508;2023-04-15T19:36:14;102531.94;;;11.12;59.61
17936;BME280;9093;52.062;4.508;2023-04-15T19:39:00;102537.47;;;11.06;59.61
17936;BME280;9093;52.062;4.508;2023-04-15T19:41:41;102535.78;;;11.02;59.93
17936;BME280;9093;52.062;4.508;2023-04-15T19:44:23;102533.28;;;10.96;59.78
17936;BME280;9093;52.062;4.508;2023-04-15T19:47:04;102527.97;;;10.95;60.19
17936;BME280;9093;52.062;4.508;2023-04-15T19:49:44;102520.94;;;10.92;60.13
17936;BME280;9093;52.062;4.508;2023-04-15T19:52:24;102523.63;;;10.92;60.07
17936;BME280;9093;52.062;4.508;2023-04-15T19:55:05;102546.81;;;10.90;60.14
17936;BME280;9093;52.062;4.508;2023-04-15T19:57:45;102538.84;;;10.88;60.08
17936;BME280;9093;52.062;4.508;2023-04-15T20:00:26;102541.41;;;10.93;60.09
17936;BME280;9093;52.062;4.508;2023-04-15T20:03:06;102536.25;;;10.87;60.30
17936;BME280;9093;52.062;4.508;2023-04-15T20:05:47;102535.25;;;10.89;60.58
17936;BME280;9093;52.062;4.508;2023-04-15T20:08:27;102532.56;;;10.91;60.24
17936;BME280;9093;52.062;4.508;2023-04-15T20:11:11;102540.59;;;10.89;60.48
17936;BME280;9093;52.062;4.508;2023-04-15T20:13:51;102541.47;;;10.90;60.32
17936;BME280;9093;52.062;4.508;2023-04-15T20:16:33;102535.19;;;10.93;60.46
17936;BME280;9093;52.062;4.508;2023-04-15T20:19:14;102542.38;;;10.91;60.17
17936;BME280;9093;52.062;4.508;2023-04-15T20:21:54;102530.78;;;10.90;60.64
17936;BME280;9093;52.062;4.508;2023-04-15T20:24:35;102533.56;;;10.87;60.64
17936;BME280;9093;52.062;4.508;2023-04-15T20:27:15;102528.22;;;10.87;60.65
17936;BME280;9093;52.062;4.508;2023-04-15T20:29:56;102542.53;;;10.84;60.65
17936;BME280;9093;52.062;4.508;2023-04-15T20:32:36;102545.16;;;10.86;60.97
17936;BME280;9093;52.062;4.508;2023-04-15T20:35:17;102536.31;;;10.84;60.68
17936;BME280;9093;52.062;4.508;2023-04-15T20:38:01;102541.59;;;10.87;60.64
17936;BME280;9093;52.062;4.508;2023-04-15T20:40:44;102537.09;;;10.87;60.83
17936;BME280;9093;52.062;4.508;2023-04-15T20:43:25;102536.25;;;10.87;60.92
17936;BME280;9093;52.062;4.508;2023-04-15T20:46:05;102538.91;;;10.87;61.03
17936;BME280;9093;52.062;4.508;2023-04-15T20:48:53;102546.94;;;10.87;60.98
17936;BME280;9093;52.062;4.508;2023-04-15T20:51:33;102540.78;;;10.83;60.86
17936;BME280;9093;52.062;4.508;2023-04-15T20:54:16;102548.78;;;10.83;60.94
17936;BME280;9093;52.062;4.508;2023-04-15T20:56:58;102547.09;;;10.81;61.00
17936;BME280;9093;52.062;4.508;2023-04-15T20:59:40;102552.53;;;10.78;61.26
17936;BME280;9093;52.062;4.508;2023-04-15T21:02:23;102557.00;;;10.76;61.24
17936;BME280;9093;52.062;4.508;2023-04-15T21:05:04;102550.75;;;10.77;61.23
17936;BME280;9093;52.062;4.508;2023-04-15T21:07:44;102558.72;;;10.80;61.43
17936;BME280;9093;52.062;4.508;2023-04-15T21:10:25;102551.59;;;10.79;61.19
17936;BME280;9093;52.062;4.508;2023-04-15T21:13:05;102551.50;;;10.82;61.31
17936;BME280;9093;52.062;4.508;2023-04-15T21:15:46;102555.06;;;10.82;61.17
17936;BME280;9093;52.062;4.508;2023-04-15T21:18:29;102557.78;;;10.81;61.41
17936;BME280;9093;52.062;4.508;2023-04-15T21:21:09;102556.03;;;10.80;61.50
17936;BME280;9093;52.062;4.508;2023-04-15T21:23:49;102556.91;;;10.80;61.38
17936;BME280;9093;52.062;4.508;2023-04-15T21:26:30;102554.28;;;10.79;61.44
17936;BME280;9093;52.062;4.508;2023-04-15T21:29:10;102560.53;;;10.78;61.79
17936;BME280;9093;52.062;4.508;2023-04-15T21:31:50;102570.38;;;10.76;61.75
17936;BME280;9093;52.062;4.508;2023-04-15T21:34:31;102571.34;;;10.73;61.83
17936;BME280;9093;52.062;4.508;2023-04-15T21:37:11;102568.72;;;10.72;61.67
17936;BME280;9093;52.062;4.508;2023-04-15T21:39:52;102567.84;;;10.71;61.74
17936;BME280;9093;52.062;4.508;2023-04-15T21:42:32;102571.53;;;10.67;61.91
17936;BME280;9093;52.062;4.508;2023-04-15T21:45:18;102573.34;;;10.65;61.87
17936;BME280;9093;52.062;4.508;2023-04-15T21:47:59;102580.44;;;10.66;62.02
17936;BME280;9093;52.062;4.508;2023-04-15T21:50:40;102593.78;;;10.68;62.16
17936;BME280;9093;52.062;4.508;2023-04-15T21:53:20;102577.75;;;10.68;62.05
17936;BME280;9093;52.062;4.508;2023-04-15T21:56:01;102577.75;;;10.68;62.04
17936;BME280;9093;52.062;4.508;2023-04-15T21:58:41;102578.63;;;10.68;62.09
17936;BME280;9093;52.062;4.508;2023-04-15T22:01:22;102585.69;;;10.69;62.21
17936;BME280;9093;52.062;4.508;2023-04-15T22:04:03;102581.28;;;10.68;62.31
17936;BME280;9093;52.062;4.508;2023-04-15T22:06:47;102586.66;;;10.67;62.41
17936;BME280;9093;52.062;4.508;2023-04-15T22:09:28;102577.75;;;10.68;62.40
17936;BME280;9093;52.062;4.508;2023-04-15T22:12:08;102574.13;;;10.69;62.17
17936;BME280;9093;52.062;4.508;2023-04-15T22:14:48;102581.22;;;10.70;62.33
17936;BME280;9093;52.062;4.508;2023-04-15T22:17:29;102586.50;;;10.73;62.44
17936;BME280;9093;52.062;4.508;2023-04-15T22:20:09;102583.00;;;10.71;62.54
17936;BME280;9093;52.062;4.508;2023-04-15T22:22:50;102581.22;;;10.70;62.39
17936;BME280;9093;52.062;4.508;2023-04-15T22:25:30;102580.31;;;10.71;62.62
17936;BME280;9093;52.062;4.508;2023-04-15T22:28:11;102590.09;;;10.72;62.54
17936;BME280;9093;52.062;4.508;2023-04-15T22:30:52;102589.19;;;10.73;62.73
17936;BME280;9093;52.062;4.508;2023-04-15T22:33:33;102590.97;;;10.72;62.65
17936;BME280;9093;52.062;4.508;2023-04-15T22:36:16;102600.09;;;10.64;62.69
17936;BME280;9093;52.062;4.508;2023-04-15T22:38:56;102595.59;;;10.66;62.73
17936;BME280;9093;52.062;4.508;2023-04-15T22:41:37;102599.13;;;10.68;62.72
17936;BME280;9093;52.062;4.508;2023-04-15T22:44:17;102600.84;;;10.69;63.10
17936;BME280;9093;52.062;4.508;2023-04-15T22:46:57;102607.03;;;10.71;62.89
17936;BME280;9093;52.062;4.508;2023-04-15T22:49:37;102616.88;;;10.69;63.14
17936;BME280;9093;52.062;4.508;2023-04-15T22:52:18;102612.41;;;10.69;63.00
17936;BME280;9093;52.062;4.508;2023-04-15T22:54:59;102612.38;;;10.71;63.10
17936;BME280;9093;52.062;4.508;2023-04-15T22:57:40;102615.91;;;10.71;63.38
17936;BME280;9093;52.062;4.508;2023-04-15T23:00:20;102615.91;;;10.73;63.23
17936;BME280;9093;52.062;4.508;2023-04-15T23:03:00;102620.34;;;10.72;63.11
17936;BME280;9093;52.062;4.508;2023-04-15T23:05:41;102625.66;;;10.74;63.12
17936;BME280;9093;52.062;4.508;2023-04-15T23:08:21;102638.19;;;10.72;63.46
17936;BME280;9093;52.062;4.508;2023-04-15T23:11:03;102623.97;;;10.70;63.51
17936;BME280;9093;52.062;4.508;2023-04-15T23:13:44;102629.41;;;10.67;63.67
17936;BME280;9093;52.062;4.508;2023-04-15T23:16:24;102637.44;;;10.67;63.77
17936;BME280;9093;52.062;4.508;2023-04-15T23:19:05;102637.44;;;10.67;63.96
17936;BME280;9093;52.062;4.508;2023-04-15T23:21:45;102639.22;;;10.66;64.00
17936;BME280;9093;52.062;4.508;2023-04-15T23:24:25;102631.06;;;10.71;64.25
17936;BME280;9093;52.062;4.508;2023-04-15T23:27:05;102631.91;;;10.73;64.25
17936;BME280;9093;52.062;4.508;2023-04-15T23:29:46;102637.28;;;10.71;64.21
17936;BME280;9093;52.062;4.508;2023-04-15T23:32:26;102645.34;;;10.70;64.49
17936;BME280;9093;52.062;4.508;2023-04-15T23:35:07;102631.16;;;10.68;64.40
17936;BME280;9093;52.062;4.508;2023-04-15T23:37:47;102640.09;;;10.67;64.53
17936;BME280;9093;52.062;4.508;2023-04-15T23:40:27;102640.97;;;10.67;64.60
17936;BME280;9093;52.062;4.508;2023-04-15T23:43:11;102629.41;;;10.67;64.43
17936;BME280;9093;52.062;4.508;2023-04-15T23:45:51;102642.81;;;10.65;64.67
17936;BME280;9093;52.062;4.508;2023-04-15T23:48:31;102638.41;;;10.63;64.92
17936;BME280;9093;52.062;4.508;2023-04-15T23:51:12;102637.59;;;10.61;65.32
17936;BME280;9093;52.062;4.508;2023-04-15T23:53:52;102627.72;;;10.63;64.96
17936;BME280;9093;52.062;4.508;2023-04-15T23:56:32;102636.56;;;10.65;65.12
17936;BME280;9093;52.062;4.508;2023-04-15T23:59:13;102639.25;;;10.65;65.07
